Time;durP1;ratioP1;P1;durP2;ratioP2;P2;SDS_P1;SDS_P2;PMS_P1;PMS_P2;Temp;Humidity;BMP_temperature;BMP_pressure;BME280_temperature;BME280_humidity;BME280_pressure;Samples;Min_cycle;Max_cycle;Signal;HPM_P1;HPM_P2
2022/10/02 00:02:31;;;;;;;;;3.67;3.00;;;;;18.15;59.67;101470.03;5032616;28;45510;-62
2022/10/02 00:05:11;;;;;;;;;5.67;3.00;;;;;18.11;60.37;101467.47;5032502;28;45427;-63
2022/10/02 00:07:43;;;;;;;;;4.00;3.33;;;;;18.09;60.53;101475.44;5027692;28;45700;-63
2022/10/02 00:10:15;;;;;;;;;5.00;2.67;;;;;18.07;60.36;101479.00;5032570;28;45459;-65
2022/10/02 00:12:44;;;;;;;;;3.00;3.00;;;;;18.07;60.77;101468.41;5014906;28;45585;-63
2022/10/02 00:15:17;;;;;;;;;3.00;3.00;;;;;18.09;60.76;101469.25;5032348;28;46255;-64
2022/10/02 00:17:47;;;;;;;;;3.00;3.00;;;;;18.09;61.16;101472.78;5005092;28;45574;-63
2022/10/02 00:20:16;;;;;;;;;3.00;2.00;;;;;18.02;61.32;101455.22;5015163;28;45664;-64
2022/10/02 00:23:20;;;;;;;;;3.00;3.00;;;;;18.08;61.65;101476.34;5035127;28;45529;-65
2022/10/02 00:25:57;;;;;;;;;2.33;2.33;;;;;18.06;61.48;101464.00;4981589;28;45769;-63
2022/10/02 00:28:33;;;;;;;;;4.33;2.00;;;;;18.13;61.44;101476.28;5027589;28;45469;-63
2022/10/02 00:31:05;;;;;;;;;3.00;3.00;;;;;18.12;61.89;101475.38;5026999;28;45580;-64
2022/10/02 00:33:47;;;;;;;;;5.00;3.00;;;;;18.05;61.66;101468.41;5035983;28;45670;-63
2022/10/02 00:36:15;;;;;;;;;2.67;2.33;;;;;18.11;62.32;101468.34;5035743;28;45384;-65
2022/10/02 00:38:54;;;;;;;;;4.00;3.00;;;;;18.13;61.93;101469.19;5034910;28;45501;-63
2022/10/02 00:41:31;;;;;;;;;3.33;3.00;;;;;18.13;62.05;101470.97;5036017;28;45359;-63
2022/10/02 00:44:16;;;;;;;;;4.00;3.00;;;;;17.99;62.28;101461.47;5038094;28;45313;-66
2022/10/02 00:47:05;;;;;;;;;3.00;3.00;;;;;17.86;62.83;101448.44;5026079;28;45431;-64
2022/10/02 00:49:55;;;;;;;;;3.00;3.00;;;;;17.99;63.62;101487.09;5020791;28;45499;-65
2022/10/02 00:52:54;;;;;;;;;3.00;3.00;;;;;17.93;63.70;101484.53;5015864;28;45412;-63
2022/10/02 00:55:37;;;;;;;;;3.00;3.00;;;;;17.97;64.78;101492.41;5026960;28;45447;-64
2022/10/02 00:58:35;;;;;;;;;2.00;1.33;;;;;17.97;64.17;101486.25;5021013;28;47094;-64
2022/10/02 01:01:11;;;;;;;;;3.33;3.00;;;;;17.90;64.72;101482.81;5017606;28;45493;-64
2022/10/02 01:03:43;;;;;;;;;2.67;2.67;;;;;17.96;64.42;101485.38;5035888;28;45551;-63
2022/10/02 01:06:09;;;;;;;;;2.67;1.67;;;;;18.04;64.77;101494.97;5032642;28;45382;-63
2022/10/02 01:08:36;;;;;;;;;3.00;2.00;;;;;18.01;64.43;101490.59;5006575;28;48005;-63
2022/10/02 01:11:03;;;;;;;;;2.33;2.33;;;;;18.08;65.12;101492.25;5017219;28;45442;-66
2022/10/02 01:13:30;;;;;;;;;2.00;2.00;;;;;18.06;64.99;101491.41;5028890;28;46183;-67
2022/10/02 01:15:59;;;;;;;;;3.00;3.00;;;;;18.09;64.83;101491.34;5026952;28;45711;-67
2022/10/02 01:18:30;;;;;;;;;3.00;1.00;;;;;18.08;65.41;101479.00;5021153;28;45532;-63
2022/10/02 01:21:03;;;;;;;;;1.33;1.33;;;;;18.10;65.48;101482.47;5034988;28;45470;-70
2022/10/02 01:23:48;;;;;;;;;0.33;0.33;;;;;18.10;65.99;101482.47;5029772;28;45434;-65
2022/10/02 01:26:15;;;;;;;;;3.00;3.00;;;;;18.04;66.93;101473.78;5029068;28;45480;-70
2022/10/02 01:28:40;;;;;;;;;2.00;2.00;;;;;18.05;66.77;101478.16;5033121;28;47679;-67
2022/10/02 01:31:09;;;;;;;;;3.00;2.00;;;;;18.04;67.60;101477.28;5022293;28;45437;-65
2022/10/02 01:33:39;;;;;;;;;1.33;1.33;;;;;18.04;68.58;101479.94;5046609;28;45407;-64
2022/10/02 01:36:06;;;;;;;;;1.33;1.33;;;;;18.01;68.10;101482.66;5038678;28;45777;-67
2022/10/02 01:38:31;;;;;;;;;3.33;2.00;;;;;18.04;68.25;101479.06;5022591;28;45769;-64
2022/10/02 01:40:57;;;;;;;;;3.00;2.67;;;;;17.98;68.45;101466.78;5021090;28;45771;-65
2022/10/02 01:43:33;;;;;;;;;1.67;1.00;;;;;18.01;68.73;101472.06;5035018;28;45360;-67
2022/10/02 01:46:29;;;;;;;;;5.00;2.00;;;;;18.00;70.45;101470.28;5005301;28;45530;-62
2022/10/02 01:49:04;;;;;;;;;3.00;3.00;;;;;17.90;70.63;101472.22;5034254;28;46234;-63
2022/10/02 01:51:42;;;;;;;;;4.00;2.33;;;;;17.83;70.78;101475.88;5034464;28;45471;-64
2022/10/02 01:54:52;;;;;;;;;1.00;1.00;;;;;17.84;70.15;101476.75;5033628;28;45510;-65
2022/10/02 01:57:54;;;;;;;;;1.00;1.00;;;;;17.86;70.80;101478.47;5031671;28;45777;-65
2022/10/02 02:01:11;;;;;;;;;1.67;1.33;;;;;17.83;71.11;101470.56;5014516;28;46259;-65
2022/10/02 02:03:56;;;;;;;;;2.00;2.00;;;;;17.86;70.66;101467.84;4933612;28;45891;-65
2022/10/02 02:06:39;;;;;;;;;3.67;2.00;;;;;17.84;71.20;101467.00;5022017;28;45858;-66
2022/10/02 02:09:17;;;;;;;;;4.00;2.00;;;;;17.85;71.81;101465.25;5034402;28;45529;-64
2022/10/02 02:12:02;;;;;;;;;1.00;1.00;;;;;17.78;71.77;101461.78;5034050;28;46372;-63
2022/10/02 02:14:35;;;;;;;;;1.00;1.00;;;;;17.85;70.79;101465.25;5032310;28;45559;-63
2022/10/02 02:17:32;;;;;;;;;1.00;1.00;;;;;17.83;70.85;101456.44;5035028;28;45868;-64
2022/10/02 02:20:14;;;;;;;;;1.33;1.33;;;;;17.79;71.40;101440.56;5038474;28;45321;-64
2022/10/02 02:22:50;;;;;;;;;2.00;1.00;;;;;17.91;71.21;101454.53;5037866;28;45982;-63
2022/10/02 02:25:21;;;;;;;;;1.00;1.00;;;;;17.93;71.51;101445.66;5022791;28;45454;-64
2022/10/02 02:27:56;;;;;;;;;1.00;1.00;;;;;17.88;72.00;101444.88;5038366;28;45550;-63
2022/10/02 02:30:23;;;;;;;;;2.00;2.00;;;;;17.83;72.29;101435.25;5033989;28;45346;-63
2022/10/02 02:32:55;;;;;;;;;1.00;1.00;;;;;17.87;72.61;101448.44;5013275;28;47112;-63
2022/10/02 02:35:40;;;;;;;;;1.00;1.00;;;;;17.85;73.73;101449.34;5033970;28;45585;-63
2022/10/02 02:38:11;;;;;;;;;1.00;1.00;;;;;17.76;72.82;101419.41;5038329;28;45411;-62
2022/10/02 02:40:43;;;;;;;;;1.00;1.00;;;;;17.87;72.58;101429.88;5034575;28;45596;-62
2022/10/02 02:43:19;;;;;;;;;1.33;1.33;;;;;17.87;72.64;101431.63;5016084;28;45529;-65
2022/10/02 02:45:56;;;;;;;;;3.00;1.00;;;;;17.88;73.85;101433.41;5033714;28;45451;-63
2022/10/02 02:48:38;;;;;;;;;2.00;1.00;;;;;17.72;73.37;101417.72;5032688;28;45376;-63
2022/10/02 02:51:17;;;;;;;;;3.00;1.00;;;;;17.79;74.58;101419.34;5033961;28;45334;-63
2022/10/02 02:54:09;;;;;;;;;2.67;1.33;;;;;17.79;74.58;101432.59;5033667;28;45499;-62
2022/10/02 02:56:36;;;;;;;;;1.00;1.00;;;;;17.72;74.30;101412.41;5032747;28;45429;-62
2022/10/02 02:59:13;;;;;;;;;2.33;1.00;;;;;17.80;73.82;101425.56;5018542;28;45517;-62
2022/10/02 03:01:40;;;;;;;;;2.00;0.67;;;;;17.84;74.42;101421.97;5024256;28;45624;-63
2022/10/02 03:04:10;;;;;;;;;1.00;1.00;;;;;17.78;74.96;101411.44;5038545;28;45483;-61
2022/10/02 03:06:40;;;;;;;;;1.00;1.00;;;;;17.80;75.10;101422.91;5036838;28;45426;-62
2022/10/02 03:09:13;;;;;;;;;4.00;1.00;;;;;17.75;74.74;101414.16;5018425;28;45498;-63
2022/10/02 03:11:44;;;;;;;;;2.00;2.00;;;;;17.80;74.55;101414.94;5032741;28;45375;-63
2022/10/02 03:14:34;;;;;;;;;3.00;2.00;;;;;17.83;75.13;101411.41;5035867;28;46131;-63
2022/10/02 03:17:25;;;;;;;;;2.67;1.00;;;;;17.79;75.22;101416.69;5037115;28;45404;-63
2022/10/02 03:20:22;;;;;;;;;4.00;1.67;;;;;17.78;75.73;101406.16;5037688;28;45478;-62
2022/10/02 03:23:08;;;;;;;;;2.00;1.00;;;;;17.75;75.59;101412.38;5014875;28;45550;-64
2022/10/02 03:25:44;;;;;;;;;1.00;1.00;;;;;17.76;75.42;101406.16;5037478;28;46147;-63
2022/10/02 03:28:17;;;;;;;;;1.00;1.00;;;;;17.79;75.59;101414.06;5019566;28;45534;-67
2022/10/02 03:30:44;;;;;;;;;1.00;1.00;;;;;17.71;75.01;101388.63;5037448;28;45356;-66
2022/10/02 03:33:12;;;;;;;;;3.33;1.00;;;;;17.85;75.27;101406.97;5037389;28;45466;-65
2022/10/02 03:35:40;;;;;;;;;3.00;2.00;;;;;17.71;75.16;101372.72;5032103;28;45676;-67
2022/10/02 03:38:09;;;;;;;;;2.00;2.00;;;;;17.85;75.72;101402.53;5031689;28;45391;-63
2022/10/02 03:40:35;;;;;;;;;2.00;1.00;;;;;17.85;75.46;101383.97;5037411;28;45434;-63
2022/10/02 03:43:01;;;;;;;;;0.67;0.67;;;;;17.90;76.13;101394.50;5034517;28;45395;-64
2022/10/02 03:45:37;;;;;;;;;3.00;1.00;;;;;17.86;76.69;101400.75;5033339;28;46158;-63
2022/10/02 03:48:03;;;;;;;;;1.00;1.00;;;;;17.86;75.59;101395.44;5036532;28;45422;-63
2022/10/02 03:50:28;;;;;;;;;1.00;1.00;;;;;17.82;75.91;101381.41;5030994;28;45589;-63
2022/10/02 03:52:54;;;;;;;;;3.00;1.67;;;;;17.92;75.80;101392.69;5019510;28;45434;-67
2022/10/02 03:55:36;;;;;;;;;3.33;1.00;;;;;17.89;75.83;101392.72;5037060;28;46681;-63
2022/10/02 03:58:09;;;;;;;;;1.00;0.00;;;;;17.93;75.56;101394.44;5028701;28;45395;-62
2022/10/02 04:00:40;;;;;;;;;0.33;0.33;;;;;17.94;75.45;101389.13;5032429;28;45679;-64
2022/10/02 04:03:27;;;;;;;;;1.00;1.00;;;;;17.90;75.85;101379.47;5032938;28;45895;-63
2022/10/02 04:06:03;;;;;;;;;1.00;1.00;;;;;17.94;75.88;101388.25;5032557;28;46595;-62
2022/10/02 04:08:39;;;;;;;;;1.00;1.00;;;;;17.94;75.80;101386.47;5036202;28;45798;-63
2022/10/02 04:11:17;;;;;;;;;1.00;1.00;;;;;17.98;75.69;101392.56;5036252;28;45459;-63
2022/10/02 04:13:54;;;;;;;;;1.00;1.00;;;;;18.00;76.28;101396.94;5036484;28;45447;-63
2022/10/02 04:16:26;;;;;;;;;1.67;1.00;;;;;18.00;75.76;101396.06;5035816;28;46253;-63
2022/10/02 04:18:57;;;;;;;;;1.00;1.00;;;;;18.01;76.66;101400.50;5027226;28;45581;-63
2022/10/02 04:21:33;;;;;;;;;3.00;1.00;;;;;18.01;76.05;101408.44;5038804;28;45461;-62
2022/10/02 04:24:11;;;;;;;;;1.00;1.00;;;;;18.01;76.41;101400.50;5040752;28;45236;-63
2022/10/02 04:26:42;;;;;;;;;2.00;0.33;;;;;18.01;76.25;101398.72;5023822;28;45612;-63
2022/10/02 04:29:16;;;;;;;;;1.00;1.00;;;;;17.98;76.29;101397.88;5036086;28;45380;-65
2022/10/02 04:31:50;;;;;;;;;0.00;0.00;;;;;18.01;76.11;101397.84;5035611;28;45407;-63
2022/10/02 04:34:15;;;;;;;;;2.00;0.00;;;;;17.99;76.06;101386.38;5016605;28;45629;-63
2022/10/02 04:36:53;;;;;;;;;0.00;0.00;;;;;18.04;76.03;101395.13;5039753;28;45952;-64
2022/10/02 04:39:48;;;;;;;;;0.00;0.00;;;;;18.00;75.82;101394.28;5039986;28;45483;-63
2022/10/02 04:42:30;;;;;;;;;0.00;0.00;;;;;18.07;75.89;101400.34;5038658;28;45478;-65
2022/10/02 04:44:58;;;;;;;;;0.00;0.00;;;;;18.08;75.56;101407.44;5040270;28;45503;-68
2022/10/02 04:47:45;;;;;;;;;0.00;0.00;;;;;18.07;76.31;101410.97;5039552;28;45472;-66
2022/10/02 04:50:25;;;;;;;;;0.00;0.00;;;;;18.04;76.31;101413.69;5037695;28;45727;-68
2022/10/02 04:53:26;;;;;;;;;0.00;0.00;;;;;18.04;76.01;101405.72;5034789;28;45981;-63
2022/10/02 04:56:08;;;;;;;;;0.00;0.00;;;;;18.04;76.15;101405.72;5010108;28;45818;-63
2022/10/02 04:59:06;;;;;;;;;0.00;0.00;;;;;18.03;76.45;101414.56;5022472;28;46109;-63
2022/10/02 05:01:44;;;;;;;;;0.00;0.00;;;;;17.98;76.48;101406.69;5017159;28;45349;-63
2022/10/02 05:04:42;;;;;;;;;0.00;0.00;;;;;17.98;76.42;101416.41;5022525;28;45431;-63
2022/10/02 05:07:48;;;;;;;;;0.00;0.00;;;;;17.91;76.77;101418.31;5006108;28;45569;-66
2022/10/02 05:10:51;;;;;;;;;0.00;0.00;;;;;17.90;76.56;101413.91;5021597;28;47554;-65
2022/10/02 05:13:29;;;;;;;;;0.00;0.00;;;;;17.86;77.16;101420.16;5022624;28;45580;-63
2022/10/02 05:16:09;;;;;;;;;0.00;0.00;;;;;17.86;76.42;101419.28;5035325;28;45529;-63
2022/10/02 05:18:56;;;;;;;;;0.00;0.00;;;;;17.85;76.48;101417.56;5034543;28;45495;-62
2022/10/02 05:21:51;;;;;;;;;0.00;0.00;;;;;17.84;76.51;101419.31;5028141;28;46707;-64
2022/10/02 05:24:38;;;;;;;;;0.00;0.00;;;;;17.86;75.92;101414.84;5035026;28;45393;-63
2022/10/02 05:27:39;;;;;;;;;0.00;0.00;;;;;17.83;75.91;101411.41;5034771;28;45455;-64
2022/10/02 05:30:14;;;;;;;;;0.00;0.00;;;;;17.87;76.45;101419.28;5038381;28;45613;-65
2022/10/02 05:33:10;;;;;;;;;0.00;0.00;;;;;17.89;76.13;101416.59;5034725;28;45606;-66
2022/10/02 05:35:54;;;;;;;;;0.33;0.00;;;;;17.89;75.92;101416.59;5024594;28;45765;-63
2022/10/02 05:38:43;;;;;;;;;0.00;0.00;;;;;17.84;76.19;101424.59;5034638;28;45853;-64
2022/10/02 05:41:21;;;;;;;;;0.00;0.00;;;;;17.81;76.42;101429.97;5034511;28;45338;-70
2022/10/02 05:43:58;;;;;;;;;0.00;0.00;;;;;17.78;76.23;101430.88;5038846;28;45533;-62
2022/10/02 05:46:35;;;;;;;;;0.00;0.00;;;;;17.71;76.02;101420.41;5020950;28;45515;-64
2022/10/02 05:49:09;;;;;;;;;0.33;0.00;;;;;17.73;76.20;101423.91;5029368;28;45868;-68
2022/10/02 05:52:12;;;;;;;;;0.00;0.00;;;;;17.74;76.07;101423.84;5019776;28;45409;-64
2022/10/02 05:54:44;;;;;;;;;0.00;0.00;;;;;17.70;76.17;101430.13;5034654;28;45513;-65
2022/10/02 05:57:33;;;;;;;;;0.00;0.00;;;;;17.69;75.97;101436.31;5032826;28;45567;-65
2022/10/02 06:00:14;;;;;;;;;0.00;0.00;;;;;17.71;75.96;101446.91;5017897;28;45530;-65
2022/10/02 06:02:56;;;;;;;;;0.00;0.00;;;;;17.69;76.06;101440.75;5032822;28;45481;-64
2022/10/02 06:05:45;;;;;;;;;0.00;0.00;;;;;17.71;75.70;101446.91;5033299;28;48062;-63
2022/10/02 06:08:14;;;;;;;;;0.00;0.00;;;;;17.73;75.70;101438.03;5030216;28;45380;-63
2022/10/02 06:10:45;;;;;;;;;1.33;0.00;;;;;17.79;75.46;101445.84;5028010;28;45896;-63
2022/10/02 06:13:39;;;;;;;;;0.33;0.00;;;;;17.76;75.38;101435.31;5016559;28;45665;-64
2022/10/02 06:16:13;;;;;;;;;1.00;0.00;;;;;17.80;74.89;101437.06;5033873;28;45577;-62
2022/10/02 06:18:42;;;;;;;;;1.00;0.00;;;;;17.85;75.23;101447.56;5034432;28;45314;-64
2022/10/02 06:21:20;;;;;;;;;0.00;0.00;;;;;17.83;75.26;101445.84;5036623;28;45498;-63
2022/10/02 06:23:51;;;;;;;;;0.00;0.00;;;;;17.85;75.00;101438.75;5022705;28;45524;-63
2022/10/02 06:26:31;;;;;;;;;0.00;0.00;;;;;17.88;75.20;101446.66;5016877;28;45406;-66
2022/10/02 06:29:06;;;;;;;;;2.00;0.00;;;;;17.86;75.16;101443.16;5024714;28;45543;-63
2022/10/02 06:31:47;;;;;;;;;0.00;0.00;;;;;17.98;74.58;101437.63;5034532;28;45334;-63
2022/10/02 06:34:13;;;;;;;;;2.33;1.00;;;;;18.08;74.39;101441.88;5034048;28;45561;-62
2022/10/02 06:36:57;;;;;;;;;1.00;1.00;;;;;18.16;74.43;101450.56;5033256;28;45948;-67
2022/10/02 06:40:01;;;;;;;;;1.00;1.00;;;;;18.38;73.45;101451.03;5030975;28;45595;-64
2022/10/02 06:42:42;;;;;;;;;1.00;0.00;;;;;18.56;72.99;101449.81;4992659;28;45791;-65
2022/10/02 06:45:31;;;;;;;;;1.00;1.00;;;;;18.73;72.08;101445.94;5028139;28;45383;-64
2022/10/02 06:48:28;;;;;;;;;0.00;0.00;;;;;18.82;71.39;101457.28;5027691;28;46670;-66
2022/10/02 06:51:02;;;;;;;;;0.00;0.00;;;;;18.89;71.76;101451.81;5031431;28;45869;-64
2022/10/02 06:53:50;;;;;;;;;0.00;0.00;;;;;18.85;70.84;101445.72;5029977;28;45526;-66
2022/10/02 06:56:26;;;;;;;;;0.00;0.00;;;;;18.90;71.19;101450.94;5017662;28;45497;-65
2022/10/02 06:59:09;;;;;;;;;0.00;0.00;;;;;18.91;71.95;101453.56;5027735;28;46114;-63
2022/10/02 07:02:13;;;;;;;;;0.00;0.00;;;;;18.90;71.43;101454.44;5021944;28;45525;-66
2022/10/02 07:04:41;;;;;;;;;0.00;0.00;;;;;18.94;71.09;101449.97;5025687;28;45592;-64
2022/10/02 07:07:20;;;;;;;;;0.00;0.00;;;;;18.95;71.48;101455.22;5013800;28;46024;-65
2022/10/02 07:09:48;;;;;;;;;0.00;0.00;;;;;18.98;70.84;101454.28;5012574;28;45809;-64
2022/10/02 07:12:19;;;;;;;;;0.00;0.00;;;;;19.03;70.63;101445.34;5023837;28;45399;-64
2022/10/02 07:15:03;;;;;;;;;0.67;0.00;;;;;19.06;70.72;101447.03;5018984;28;45847;-68
2022/10/02 07:17:52;;;;;;;;;0.00;0.00;;;;;19.10;71.21;101446.06;5030096;28;45516;-65
2022/10/02 07:20:50;;;;;;;;;0.00;0.00;;;;;19.16;70.68;101440.63;5025195;28;45447;-66
2022/10/02 07:23:45;;;;;;;;;0.00;0.00;;;;;19.27;70.25;101441.25;4963440;28;45577;-65
2022/10/02 07:26:34;;;;;;;;;0.00;0.00;;;;;19.39;69.69;101444.53;5025193;28;45588;-65
2022/10/02 07:29:21;;;;;;;;;0.00;0.00;;;;;19.52;68.71;101445.13;5018135;28;45483;-66
2022/10/02 07:32:10;;;;;;;;;0.00;0.00;;;;;19.60;68.46;101435.16;5024871;28;46054;-66
2022/10/02 07:35:02;;;;;;;;;0.00;0.00;;;;;19.63;67.83;101440.41;5017662;28;45622;-64
2022/10/02 07:37:38;;;;;;;;;0.00;0.00;;;;;19.69;67.71;101454.47;5003600;28;45478;-64
2022/10/02 07:40:35;;;;;;;;;0.00;0.00;;;;;19.69;68.23;101464.19;5023982;28;45548;-66
2022/10/02 07:43:16;;;;;;;;;0.00;0.00;;;;;19.64;67.47;101461.63;5028335;28;46087;-65
2022/10/02 07:46:01;;;;;;;;;0.00;0.00;;;;;19.63;67.75;101467.00;5022884;28;45381;-65
2022/10/02 07:48:40;;;;;;;;;0.00;0.00;;;;;19.59;67.60;101458.22;5020890;28;45783;-66
2022/10/02 07:51:50;;;;;;;;;0.00;0.00;;;;;19.61;67.23;101460.84;5016516;28;45526;-64
2022/10/02 07:54:34;;;;;;;;;0.00;0.00;;;;;19.47;68.06;101463.81;5020584;28;45570;-63
2022/10/02 07:57:45;;;;;;;;;0.00;0.00;;;;;19.49;67.84;101469.97;5013029;28;45328;-64
2022/10/02 08:00:17;;;;;;;;;1.67;0.00;;;;;19.51;67.78;101456.66;4958846;28;45465;-65
2022/10/02 08:02:53;;;;;;;;;4.00;1.00;;;;;19.55;67.59;101458.31;5011237;28;45543;-68
2022/10/02 08:05:24;;;;;;;;;2.00;1.00;;;;;19.66;67.23;101486.38;5014217;28;48056;-66
2022/10/02 08:07:54;;;;;;;;;0.67;0.00;;;;;19.64;66.94;101485.53;5015480;28;45301;-62
2022/10/02 08:10:24;;;;;;;;;0.00;0.00;;;;;19.70;67.03;101493.41;4999563;28;45549;-63
2022/10/02 08:13:00;;;;;;;;;0.33;0.33;;;;;19.66;67.30;101494.34;5016020;28;45554;-63
2022/10/02 08:15:33;;;;;;;;;1.00;1.00;;;;;19.69;66.86;101490.78;5012822;28;45376;-63
2022/10/02 08:18:07;;;;;;;;;3.33;1.00;;;;;19.62;66.77;101486.47;5020744;28;45522;-61
2022/10/02 08:20:38;;;;;;;;;0.33;0.33;;;;;19.53;66.62;101481.38;5005108;28;45634;-63
2022/10/02 08:23:26;;;;;;;;;1.33;0.00;;;;;19.56;67.11;101497.28;5017361;28;45425;-68
2022/10/02 08:26:03;;;;;;;;;0.00;0.00;;;;;19.53;67.46;101486.69;5015207;28;45612;-63
2022/10/02 08:29:04;;;;;;;;;1.00;1.00;;;;;19.64;67.37;101496.16;5010767;28;45786;-66
2022/10/02 08:31:30;;;;;;;;;3.00;0.00;;;;;19.69;66.51;101496.09;5012514;28;45757;-62
2022/10/02 08:33:56;;;;;;;;;1.00;1.00;;;;;19.67;66.35;101484.59;4994647;28;45589;-68
2022/10/02 08:36:45;;;;;;;;;2.67;1.00;;;;;19.72;66.37;101497.81;5012435;28;45616;-64
2022/10/02 08:39:43;;;;;;;;;1.33;1.00;;;;;19.71;66.44;101491.63;5012535;28;45373;-67
2022/10/02 08:42:33;;;;;;;;;1.00;1.00;;;;;19.77;66.03;101494.16;4985053;28;45530;-68
2022/10/02 08:45:23;;;;;;;;;0.00;0.00;;;;;19.88;66.30;101494.75;5014990;28;45808;-67
2022/10/02 08:48:14;;;;;;;;;1.00;1.00;;;;;20.06;65.02;101500.53;5012894;28;45852;-66
2022/10/02 08:51:07;;;;;;;;;3.00;1.00;;;;;20.18;64.98;101508.19;5013313;28;45457;-64
2022/10/02 08:54:17;;;;;;;;;1.00;1.00;;;;;20.20;64.19;101492.19;5016182;28;45612;-66
2022/10/02 08:56:57;;;;;;;;;1.00;1.00;;;;;20.22;64.50;101498.34;5015697;28;45524;-64
2022/10/02 08:59:24;;;;;;;;;2.00;2.00;;;;;20.17;64.35;101506.44;5026252;28;45819;-64
2022/10/02 09:02:10;;;;;;;;;6.00;1.00;;;;;20.10;64.82;101500.41;5028109;28;45437;-65
2022/10/02 09:05:05;;;;;;;;;2.00;0.67;;;;;20.05;64.83;101499.66;5022721;28;45651;-63
2022/10/02 09:08:07;;;;;;;;;1.33;1.33;;;;;20.07;64.88;101495.19;5023689;28;45385;-64
2022/10/02 09:11:26;;;;;;;;;1.00;1.00;;;;;20.09;65.02;101505.75;5020669;28;45640;-64
2022/10/02 09:14:18;;;;;;;;;1.00;1.00;;;;;20.13;64.83;101504.78;5020136;28;45791;-64
2022/10/02 09:17:05;;;;;;;;;2.67;0.67;;;;;20.16;64.63;101495.84;5023076;28;45651;-66
2022/10/02 09:19:45;;;;;;;;;3.00;1.00;;;;;20.16;64.84;101496.69;5023301;28;45445;-64
2022/10/02 09:22:33;;;;;;;;;2.00;2.00;;;;;20.16;64.88;101491.38;5014707;28;46731;-69
2022/10/02 09:25:21;;;;;;;;;1.00;1.00;;;;;20.18;64.62;101492.22;5027923;28;45488;-63
2022/10/02 09:28:24;;;;;;;;;1.00;1.00;;;;;20.17;65.00;101487.84;5020997;28;45397;-64
2022/10/02 09:31:13;;;;;;;;;0.67;0.67;;;;;20.20;64.96;101485.09;5030753;28;45452;-64
2022/10/02 09:34:00;;;;;;;;;1.00;1.00;;;;;20.20;64.66;101485.09;5015089;28;46115;-69
2022/10/02 09:36:37;;;;;;;;;1.00;0.00;;;;;20.26;64.94;101474.28;5015234;28;45372;-62
2022/10/02 09:39:34;;;;;;;;;1.00;0.00;;;;;20.24;65.05;101476.13;5015644;28;45430;-63
2022/10/02 09:42:25;;;;;;;;;1.33;1.00;;;;;20.32;65.11;101484.75;5021600;28;45499;-64
2022/10/02 09:45:17;;;;;;;;;2.00;0.00;;;;;20.37;64.76;101489.09;5018780;28;45796;-63
2022/10/02 09:48:33;;;;;;;;;1.33;0.00;;;;;20.37;64.54;101484.63;5017758;28;45489;-64
2022/10/02 09:51:17;;;;;;;;;1.00;1.00;;;;;20.45;64.69;101487.06;4950069;28;45514;-64
2022/10/02 09:54:14;;;;;;;;;3.00;1.00;;;;;20.56;64.52;101479.72;4953078;28;45582;-65
2022/10/02 09:57:14;;;;;;;;;1.33;1.00;;;;;20.47;64.31;101464.84;5009272;28;45675;-62
2022/10/02 10:00:01;;;;;;;;;3.33;1.00;;;;;20.55;64.59;101483.28;5020621;28;45721;-64
2022/10/02 10:02:42;;;;;;;;;1.00;1.00;;;;;20.57;64.37;101491.22;5029945;28;45681;-65
2022/10/02 10:05:32;;;;;;;;;3.33;1.00;;;;;20.70;64.21;101493.50;5034054;28;45593;-64
2022/10/02 10:08:23;;;;;;;;;2.00;2.00;;;;;20.96;63.43;101497.22;5030760;28;45508;-63
2022/10/02 10:11:28;;;;;;;;;1.00;1.00;;;;;21.03;62.62;101488.13;5033651;28;45891;-66
2022/10/02 10:13:56;;;;;;;;;1.33;1.00;;;;;20.99;62.84;101497.13;5034813;28;45249;-62
2022/10/02 10:16:29;;;;;;;;;1.00;1.00;;;;;21.05;62.75;101491.63;5021416;28;45902;-65
2022/10/02 10:19:27;;;;;;;;;1.67;0.33;;;;;21.10;62.90;101486.16;5017470;28;45755;-66
2022/10/02 10:22:14;;;;;;;;;1.00;1.00;;;;;21.61;61.49;101501.47;5004804;28;45433;-64
2022/10/02 10:25:17;;;;;;;;;1.00;0.50;;;;;21.65;61.65;101500.47;5015857;28;45401;-65
2022/10/02 10:28:01;;;;;;;;;2.00;1.00;;;;;21.67;62.07;101503.09;5032746;28;45392;-66
2022/10/02 10:30:43;;;;;;;;;1.00;1.00;;;;;21.58;61.98;101507.78;5028156;28;45713;-64
2022/10/02 10:33:31;;;;;;;;;2.00;2.00;;;;;21.47;62.01;101501.03;5013790;28;45480;-67
2022/10/02 10:39:25;;;;;;;;;24.00;19.67;;;;;21.71;60.90;101496.72;5027081;28;45463;-66
2022/10/02 10:42:49;;;;;;;;;11.00;9.33;;;;;21.73;60.64;101495.75;5017575;28;46715;-66
2022/10/02 10:45:23;;;;;;;;;3.33;2.33;;;;;21.96;59.87;101488.81;4916618;28;45458;-65
2022/10/02 10:47:59;;;;;;;;;2.00;1.33;;;;;22.23;59.88;101490.56;4932779;28;45794;-64
2022/10/02 10:51:01;;;;;;;;;4.00;1.67;;;;;22.58;57.99;101482.22;4982459;28;45421;-67
2022/10/02 10:53:46;;;;;;;;;1.67;1.67;;;;;22.36;58.93;101485.66;4994640;28;46131;-67
2022/10/02 10:56:24;;;;;;;;;2.00;2.00;;;;;22.17;59.17;101490.75;5017546;28;45714;-69
2022/10/02 10:59:11;;;;;;;;;1.00;1.00;;;;;21.93;59.42;101478.25;5020289;28;45545;-69
2022/10/02 11:02:18;;;;;;;;;3.00;1.33;;;;;21.80;59.31;101488.44;5022418;28;45465;-76
2022/10/02 11:04:57;;;;;;;;;1.33;1.33;;;;;21.57;59.54;101481.19;4942545;28;47227;-66
2022/10/02 11:07:44;;;;;;;;;2.00;1.00;;;;;21.49;59.35;101494.75;5029231;28;45426;-66
2022/10/02 11:10:36;;;;;;;;;0.25;0.25;;;;;21.39;59.66;101498.59;5027604;28;45309;-67
2022/10/02 11:13:20;;;;;;;;;1.00;1.00;;;;;21.35;59.79;101499.59;5031388;28;45548;-67
2022/10/02 11:16:06;;;;;;;;;1.00;1.00;;;;;21.30;59.62;101490.88;5011451;28;47971;-65
2022/10/02 11:18:49;;;;;;;;;1.00;1.00;;;;;21.36;59.45;101480.91;5030649;28;45730;-66
2022/10/02 11:21:51;;;;;;;;;1.50;1.50;;;;;21.42;59.22;101482.53;5023770;28;45586;-66
2022/10/02 11:24:49;;;;;;;;;4.00;2.67;;;;;21.58;58.92;101488.25;5016286;28;45344;-67
2022/10/02 11:27:43;;;;;;;;;5.67;5.67;;;;;21.53;58.88;101493.72;5030612;28;46102;-67
2022/10/02 11:30:53;;;;;;;;;4.00;2.00;;;;;21.43;58.98;101486.97;5024904;28;45448;-64
2022/10/02 11:33:38;;;;;;;;;1.00;1.00;;;;;21.28;59.49;101496.25;4998820;28;45613;-67
2022/10/02 11:36:40;;;;;;;;;2.00;2.00;;;;;21.14;59.84;101496.69;5034091;28;45498;-66
2022/10/02 11:39:30;;;;;;;;;3.67;2.00;;;;;21.04;60.50;101491.66;5017058;28;45752;-66
2022/10/02 11:42:25;;;;;;;;;1.67;1.00;;;;;21.01;60.62;101494.44;5000719;28;45414;-65
2022/10/02 11:45:15;;;;;;;;;2.00;2.00;;;;;21.01;60.80;101494.44;5036029;28;45375;-65
2022/10/02 11:48:10;;;;;;;;;1.67;1.67;;;;;21.01;60.59;101499.75;5031528;28;45339;-66
2022/10/02 11:50:55;;;;;;;;;2.00;2.00;;;;;21.05;60.56;101491.63;5001733;28;47755;-65
2022/10/02 11:53:33;;;;;;;;;3.00;1.00;;;;;21.12;60.22;101495.84;5025539;28;45622;-65
2022/10/02 11:56:20;;;;;;;;;3.00;2.00;;;;;21.12;60.35;101497.66;5026784;28;45740;-66
2022/10/02 11:59:05;;;;;;;;;3.00;1.67;;;;;21.08;60.57;101515.50;5023160;28;45516;-66
2022/10/02 12:01:48;;;;;;;;;1.00;1.00;;;;;20.99;62.10;101533.53;5033684;28;46971;-67
2022/10/02 12:04:56;;;;;;;;;1.00;1.00;;;;;20.86;63.95;101533.91;5035768;28;45463;-66
2022/10/02 12:07:49;;;;;;;;;1.00;1.00;;;;;20.92;64.87;101533.69;5020301;28;45859;-65
2022/10/02 12:10:38;;;;;;;;;1.00;1.00;;;;;21.08;64.31;101522.63;5033197;28;45470;-65
2022/10/02 12:13:23;;;;;;;;;1.67;1.00;;;;;21.20;64.03;101529.38;5021541;28;47550;-66
2022/10/02 12:16:15;;;;;;;;;1.00;0.67;;;;;21.28;64.60;101528.22;5024518;28;45521;-67
2022/10/02 12:19:27;;;;;;;;;2.00;1.00;;;;;21.45;64.52;101521.53;5032405;28;45330;-66
2022/10/02 12:28:31;;;;;;;;;1.00;1.00;;;;;21.72;63.94;101511.81;5022423;28;45460;-67
2022/10/02 12:31:11;;;;;;;;;2.00;1.67;;;;;21.76;62.89;101516.13;5029927;28;45543;-66
2022/10/02 12:33:53;;;;;;;;;1.00;1.00;;;;;21.56;63.57;101498.97;5024227;28;45405;-66
2022/10/02 12:36:55;;;;;;;;;1.00;1.00;;;;;21.39;64.27;101506.59;5017011;28;46890;-66
2022/10/02 12:39:44;;;;;;;;;2.00;2.00;;;;;21.26;64.98;101514.09;5028149;28;45711;-65
2022/10/02 12:42:39;;;;;;;;;1.00;1.00;;;;;21.10;65.50;101511.00;5035439;28;45577;-66
2022/10/02 12:45:24;;;;;;;;;1.33;1.33;;;;;21.09;65.89;101511.91;5021229;28;45588;-66
2022/10/02 12:48:15;;;;;;;;;0.00;0.00;;;;;21.18;65.55;101505.44;5039501;28;46408;-66